sensor_id;sensor_type;location;lat;lon;timestamp;pressure;altitude;pressure_sealevel;temperature;humidity
75013;BME280;63567;49.956;20.130;2022-11-02T00:00:30;97502.47;;;11.61;75.45
75013;BME280;63567;49.956;20.130;2022-11-02T00:02:57;97498.81;;;11.62;75.46
75013;BME280;63567;49.956;20.130;2022-11-02T00:05:22;97496.19;;;11.62;75.73
75013;BME280;63567;49.956;20.130;2022-11-02T00:07:50;97497.53;;;11.72;75.24
75013;BME280;63567;49.956;20.130;2022-11-02T00:10:15;97505.03;;;11.69;75.23
75013;BME280;63567;49.956;20.130;2022-11-02T00:12:41;97492.63;;;11.69;75.12
75013;BME280;63567;49.956;20.130;2022-11-02T00:15:07;97497.19;;;11.76;75.08
75013;BME280;63567;49.956;20.130;2022-11-02T00:17:33;97502.19;;;11.70;75.18
75013;BME280;63567;49.956;20.130;2022-11-02T00:20:00;97498.00;;;11.76;75.24
75013;BME280;63567;49.956;20.130;2022-11-02T00:22:25;97495.28;;;11.69;75.24
75013;BME280;63567;49.956;20.130;2022-11-02T00:24:51;97499.28;;;11.80;74.83
75013;BME280;63567;49.956;20.130;2022-11-02T00:27:16;97491.44;;;11.72;75.11
75013;BME280;63567;49.956;20.130;2022-11-02T00:29:42;97496.63;;;11.80;75.25
75013;BME280;63567;49.956;20.130;2022-11-02T00:32:07;97494.91;;;11.72;75.20
75013;BME280;63567;49.956;20.130;2022-11-02T00:34:32;97491.63;;;11.70;75.30
75013;BME280;63567;49.956;20.130;2022-11-02T00:36:57;97497.63;;;11.79;74.90
75013;BME280;63567;49.956;20.130;2022-11-02T00:39:23;97489.91;;;11.78;75.12
75013;BME280;63567;49.956;20.130;2022-11-02T00:41:48;97498.06;;;11.83;75.24
75013;BME280;63567;49.956;20.130;2022-11-02T00:44:13;97497.91;;;11.84;75.13
75013;BME280;63567;49.956;20.130;2022-11-02T00:46:38;97497.06;;;11.84;75.32
75013;BME280;63567;49.956;20.130;2022-11-02T00:49:04;97493.53;;;11.91;74.89
75013;BME280;63567;49.956;20.130;2022-11-02T00:51:30;97491.28;;;11.88;74.85
75013;BME280;63567;49.956;20.130;2022-11-02T00:53:55;97497.38;;;11.89;75.12
75013;BME280;63567;49.956;20.130;2022-11-02T00:56:20;97498.44;;;11.95;74.78
75013;BME280;63567;49.956;20.130;2022-11-02T00:58:46;97498.25;;;11.96;74.85
75013;BME280;63567;49.956;20.130;2022-11-02T01:01:11;97488.72;;;11.95;74.80
75013;BME280;63567;49.956;20.130;2022-11-02T01:03:36;97492.97;;;11.96;74.73
75013;BME280;63567;49.956;20.130;2022-11-02T01:06:09;97490.59;;;12.01;75.07
75013;BME280;63567;49.956;20.130;2022-11-02T01:08:35;97487.06;;;11.94;75.20
75013;BME280;63567;49.956;20.130;2022-11-02T01:11:33;97488.06;;;12.08;74.63
75013;BME280;63567;49.956;20.130;2022-11-02T01:13:58;97492.00;;;11.97;75.04
75013;BME280;63567;49.956;20.130;2022-11-02T01:16:23;97491.22;;;12.03;74.96
75013;BME280;63567;49.956;20.130;2022-11-02T01:18:53;97486.78;;;12.04;74.97
75013;BME280;63567;49.956;20.130;2022-11-02T01:21:19;97486.31;;;12.00;75.08
75013;BME280;63567;49.956;20.130;2022-11-02T01:23:44;97492.06;;;12.04;75.21
75013;BME280;63567;49.956;20.130;2022-11-02T01:26:10;97489.22;;;12.05;74.98
75013;BME280;63567;49.956;20.130;2022-11-02T01:28:36;97484.56;;;12.07;75.12
75013;BME280;63567;49.956;20.130;2022-11-02T01:31:02;97487.34;;;12.21;74.42
75013;BME280;63567;49.956;20.130;2022-11-02T01:33:27;97488.38;;;12.20;74.46
75013;BME280;63567;49.956;20.130;2022-11-02T01:35:53;97486.13;;;12.17;74.42
75013;BME280;63567;49.956;20.130;2022-11-02T01:38:19;97485.41;;;12.08;74.36
75013;BME280;63567;49.956;20.130;2022-11-02T01:40:44;97486.88;;;11.96;74.52
75013;BME280;63567;49.956;20.130;2022-11-02T01:48:26;97495.63;;;11.66;75.18
75013;BME280;63567;49.956;20.130;2022-11-02T01:50:52;97493.75;;;11.60;75.34
75013;BME280;63567;49.956;20.130;2022-11-02T01:53:18;97499.13;;;11.52;75.66
75013;BME280;63567;49.956;20.130;2022-11-02T01:55:43;97488.72;;;11.50;75.76
75013;BME280;63567;49.956;20.130;2022-11-02T01:58:09;97498.66;;;11.48;75.87
75013;BME280;63567;49.956;20.130;2022-11-02T02:00:36;97491.19;;;11.37;76.07
75013;BME280;63567;49.956;20.130;2022-11-02T02:03:13;97499.03;;;11.45;75.87
75013;BME280;63567;49.956;20.130;2022-11-02T02:05:45;97503.84;;;11.42;75.94
75013;BME280;63567;49.956;20.130;2022-11-02T02:08:14;97499.28;;;11.36;76.49
75013;BME280;63567;49.956;20.130;2022-11-02T02:10:40;97504.84;;;11.41;76.37
75013;BME280;63567;49.956;20.130;2022-11-02T02:13:05;97498.94;;;11.39;76.50
75013;BME280;63567;49.956;20.130;2022-11-02T02:15:53;97500.22;;;11.43;76.39
75013;BME280;63567;49.956;20.130;2022-11-02T02:18:40;97511.03;;;11.48;76.41
75013;BME280;63567;49.956;20.130;2022-11-02T02:21:45;97516.13;;;11.49;76.35
75013;BME280;63567;49.956;20.130;2022-11-02T02:24:23;97505.50;;;11.43;76.48
75013;BME280;63567;49.956;20.130;2022-11-02T02:28:17;97508.84;;;11.37;76.44
75013;BME280;63567;49.956;20.130;2022-11-02T02:30:10;97506.22;;;11.37;76.38
75013;BME280;63567;49.956;20.130;2022-11-02T02:32:50;97512.94;;;11.39;76.40
75013;BME280;63567;49.956;20.130;2022-11-02T02:35:25;97517.56;;;11.37;76.68
75013;BME280;63567;49.956;20.130;2022-11-02T02:38:02;97516.22;;;11.41;76.28
75013;BME280;63567;49.956;20.130;2022-11-02T02:40:57;97509.19;;;11.48;76.20
75013;BME280;63567;49.956;20.130;2022-11-02T02:43:33;97510.56;;;11.44;76.38
75013;BME280;63567;49.956;20.130;2022-11-02T02:46:07;97512.28;;;11.37;76.37
75013;BME280;63567;49.956;20.130;2022-11-02T02:48:33;97518.84;;;11.41;76.15
75013;BME280;63567;49.956;20.130;2022-11-02T02:51:05;97520.41;;;11.50;76.01
75013;BME280;63567;49.956;20.130;2022-11-02T02:53:35;97517.66;;;11.44;76.27
75013;BME280;63567;49.956;20.130;2022-11-02T02:56:03;97521.13;;;11.44;76.03
75013;BME280;63567;49.956;20.130;2022-11-02T02:58:41;97527.84;;;11.47;75.69
75013;BME280;63567;49.956;20.130;2022-11-02T03:01:11;97524.03;;;11.35;76.46
75013;BME280;63567;49.956;20.130;2022-11-02T03:03:39;97523.75;;;11.29;76.42
75013;BME280;63567;49.956;20.130;2022-11-02T03:06:13;97524.22;;;11.33;76.37
75013;BME280;63567;49.956;20.130;2022-11-02T03:08:42;97521.19;;;11.36;76.33
75013;BME280;63567;49.956;20.130;2022-11-02T03:11:13;97532.59;;;11.37;76.16
75013;BME280;63567;49.956;20.130;2022-11-02T03:16:50;97528.03;;;11.30;76.38
75013;BME280;63567;49.956;20.130;2022-11-02T03:22:10;97527.13;;;11.23;76.57
75013;BME280;63567;49.956;20.130;2022-11-02T03:27:15;97546.44;;;11.01;77.85
75013;BME280;63567;49.956;20.130;2022-11-02T03:30:02;97542.72;;;11.10;77.30
75013;BME280;63567;49.956;20.130;2022-11-02T03:35:17;97537.81;;;11.07;77.58
75013;BME280;63567;49.956;20.130;2022-11-02T03:37:51;97536.16;;;11.06;77.28
75013;BME280;63567;49.956;20.130;2022-11-02T03:40:27;97536.91;;;11.00;77.20
75013;BME280;63567;49.956;20.130;2022-11-02T03:42:55;97534.50;;;10.90;77.46
75013;BME280;63567;49.956;20.130;2022-11-02T03:45:23;97542.94;;;10.85;77.68
75013;BME280;63567;49.956;20.130;2022-11-02T03:48:03;97529.91;;;10.84;77.73
75013;BME280;63567;49.956;20.130;2022-11-02T03:50:31;97532.81;;;10.74;77.95
75013;BME280;63567;49.956;20.130;2022-11-02T03:53:05;97533.78;;;10.73;78.50
75013;BME280;63567;49.956;20.130;2022-11-02T03:55:38;97540.78;;;10.66;78.37
75013;BME280;63567;49.956;20.130;2022-11-02T03:58:08;97532.34;;;10.71;78.54
75013;BME280;63567;49.956;20.130;2022-11-02T04:00:34;97536.78;;;10.70;78.40
75013;BME280;63567;49.956;20.130;2022-11-02T04:03:01;97547.56;;;10.60;78.62
75013;BME280;63567;49.956;20.130;2022-11-02T04:05:30;97540.50;;;10.61;78.64
75013;BME280;63567;49.956;20.130;2022-11-02T04:07:56;97540.19;;;10.56;78.68
75013;BME280;63567;49.956;20.130;2022-11-02T04:10:40;97549.25;;;10.53;79.28
75013;BME280;63567;49.956;20.130;2022-11-02T04:13:25;97538.59;;;10.46;79.58
75013;BME280;63567;49.956;20.130;2022-11-02T04:16:09;97544.88;;;10.45;79.48
75013;BME280;63567;49.956;20.130;2022-11-02T04:18:34;97553.06;;;10.51;79.27
75013;BME280;63567;49.956;20.130;2022-11-02T04:21:18;97554.19;;;10.56;78.91
75013;BME280;63567;49.956;20.130;2022-11-02T04:23:43;97554.69;;;10.52;79.13
75013;BME280;63567;49.956;20.130;2022-11-02T04:26:27;97556.00;;;10.56;78.73
75013;BME280;63567;49.956;20.130;2022-11-02T04:28:52;97551.19;;;10.59;79.07
75013;BME280;63567;49.956;20.130;2022-11-02T04:31:17;97553.66;;;10.61;78.73
75013;BME280;63567;49.956;20.130;2022-11-02T04:33:43;97559.38;;;10.64;79.12
75013;BME280;63567;49.956;20.130;2022-11-02T04:36:08;97557.72;;;10.72;79.11
75013;BME280;63567;49.956;20.130;2022-11-02T04:38:33;97558.00;;;10.77;78.99
75013;BME280;63567;49.956;20.130;2022-11-02T04:41:12;97563.19;;;10.85;78.17
75013;BME280;63567;49.956;20.130;2022-11-02T04:43:56;97564.00;;;10.85;78.38
75013;BME280;63567;49.956;20.130;2022-11-02T04:46:24;97553.59;;;10.92;78.00
75013;BME280;63567;49.956;20.130;2022-11-02T04:48:50;97559.34;;;10.96;77.74
75013;BME280;63567;49.956;20.130;2022-11-02T04:51:16;97559.50;;;10.94;78.03
75013;BME280;63567;49.956;20.130;2022-11-02T04:53:42;97560.31;;;10.95;77.76
75013;BME280;63567;49.956;20.130;2022-11-02T04:56:07;97560.03;;;10.89;77.88
75013;BME280;63567;49.956;20.130;2022-11-02T04:58:33;97565.03;;;10.84;78.05
75013;BME280;63567;49.956;20.130;2022-11-02T05:01:06;97564.78;;;10.94;77.53
75013;BME280;63567;49.956;20.130;2022-11-02T05:03:32;97562.41;;;10.84;77.60
75013;BME280;63567;49.956;20.130;2022-11-02T05:05:57;97568.81;;;10.82;77.78
75013;BME280;63567;49.956;20.130;2022-11-02T05:08:23;97569.19;;;10.79;78.14
75013;BME280;63567;49.956;20.130;2022-11-02T05:10:48;97567.03;;;10.82;77.90
75013;BME280;63567;49.956;20.130;2022-11-02T05:13:13;97568.00;;;10.81;78.01
75013;BME280;63567;49.956;20.130;2022-11-02T05:15:39;97574.09;;;10.82;78.21
75013;BME280;63567;49.956;20.130;2022-11-02T05:18:04;97575.19;;;10.87;77.76
75013;BME280;63567;49.956;20.130;2022-11-02T05:20:29;97576.81;;;10.88;77.56
75013;BME280;63567;49.956;20.130;2022-11-02T05:22:55;97583.28;;;10.86;78.00
75013;BME280;63567;49.956;20.130;2022-11-02T05:25:20;97582.00;;;10.82;78.09
75013;BME280;63567;49.956;20.130;2022-11-02T05:27:46;97574.84;;;10.90;77.71
75013;BME280;63567;49.956;20.130;2022-11-02T05:30:11;97578.47;;;10.89;77.96
75013;BME280;63567;49.956;20.130;2022-11-02T05:32:36;97579.13;;;10.92;77.64
75013;BME280;63567;49.956;20.130;2022-11-02T05:35:02;97585.16;;;11.00;77.12
75013;BME280;63567;49.956;20.130;2022-11-02T05:37:27;97580.16;;;11.05;77.52
75013;BME280;63567;49.956;20.130;2022-11-02T05:39:53;97582.47;;;11.08;77.22
75013;BME280;63567;49.956;20.130;2022-11-02T05:42:18;97579.34;;;11.05;77.40
75013;BME280;63567;49.956;20.130;2022-11-02T05:44:44;97582.75;;;11.14;77.31
75013;BME280;63567;49.956;20.130;2022-11-02T05:47:09;97585.47;;;11.20;76.91
75013;BME280;63567;49.956;20.130;2022-11-02T05:49:34;97585.47;;;11.20;76.78
75013;BME280;63567;49.956;20.130;2022-11-02T05:51:59;97592.31;;;11.29;76.83
75013;BME280;63567;49.956;20.130;2022-11-02T05:54:25;97593.97;;;11.30;76.58
75013;BME280;63567;49.956;20.130;2022-11-02T05:56:50;97595.78;;;11.45;76.56
75013;BME280;63567;49.956;20.130;2022-11-02T05:59:15;97596.25;;;11.48;76.57
75013;BME280;63567;49.956;20.130;2022-11-02T06:01:41;97596.66;;;11.60;75.93
75013;BME280;63567;49.956;20.130;2022-11-02T06:04:06;97593.91;;;11.68;75.80
75013;BME280;63567;49.956;20.130;2022-11-02T06:06:31;97604.19;;;11.63;75.84
75013;BME280;63567;49.956;20.130;2022-11-02T06:08:57;97601.28;;;11.73;75.54
75013;BME280;63567;49.956;20.130;2022-11-02T06:11:22;97601.41;;;11.80;75.29
75013;BME280;63567;49.956;20.130;2022-11-02T06:13:49;97606.47;;;11.81;75.35
75013;BME280;63567;49.956;20.130;2022-11-02T06:16:15;97608.25;;;11.89;75.17
75013;BME280;63567;49.956;20.130;2022-11-02T06:18:41;97610.91;;;11.89;75.06
75013;BME280;63567;49.956;20.130;2022-11-02T06:21:07;97604.47;;;11.83;74.86
75013;BME280;63567;49.956;20.130;2022-11-02T06:23:33;97606.59;;;11.88;74.81
75013;BME280;63567;49.956;20.130;2022-11-02T06:25:59;97603.28;;;11.86;74.85
75013;BME280;63567;49.956;20.130;2022-11-02T06:28:25;97613.22;;;11.84;75.22
75013;BME280;63567;49.956;20.130;2022-11-02T06:30:50;97614.69;;;11.86;75.09
75013;BME280;63567;49.956;20.130;2022-11-02T06:33:16;97617.69;;;11.83;75.11
75013;BME280;63567;49.956;20.130;2022-11-02T06:35:50;97612.41;;;11.83;75.03
75013;BME280;63567;49.956;20.130;2022-11-02T06:38:16;97618.50;;;11.84;75.23
75013;BME280;63567;49.956;20.130;2022-11-02T06:40:42;97621.59;;;11.87;74.82
75013;BME280;63567;49.956;20.130;2022-11-02T06:43:08;97617.34;;;12.01;74.35
75013;BME280;63567;49.956;20.130;2022-11-02T06:45:33;97620.91;;;11.94;74.18
75013;BME280;63567;49.956;20.130;2022-11-02T06:47:59;97619.53;;;11.98;74.26
75013;BME280;63567;49.956;20.130;2022-11-02T06:50:24;97614.81;;;12.08;73.92
75013;BME280;63567;49.956;20.130;2022-11-02T06:52:50;97623.09;;;12.20;73.69
75013;BME280;63567;49.956;20.130;2022-11-02T06:55:17;97619.06;;;12.24;73.62
75013;BME280;63567;49.956;20.130;2022-11-02T06:57:43;97613.41;;;12.27;73.41
75013;BME280;63567;49.956;20.130;2022-11-02T07:00:12;97615.94;;;12.35;73.38
75013;BME280;63567;49.956;20.130;2022-11-02T07:02:38;97624.50;;;12.37;73.32
75013;BME280;63567;49.956;20.130;2022-11-02T07:05:04;97627.78;;;12.54;73.01
75013;BME280;63567;49.956;20.130;2022-11-02T07:07:29;97622.31;;;12.56;72.51
75013;BME280;63567;49.956;20.130;2022-11-02T07:09:55;97624.53;;;12.73;72.07
75013;BME280;63567;49.956;20.130;2022-11-02T07:12:20;97613.44;;;12.85;71.92
75013;BME280;63567;49.956;20.130;2022-11-02T07:14:45;97630.19;;;13.13;70.84
75013;BME280;63567;49.956;20.130;2022-11-02T07:17:10;97629.41;;;13.34;70.58
75013;BME280;63567;49.956;20.130;2022-11-02T07:19:36;97625.41;;;13.24;70.46
75013;BME280;63567;49.956;20.130;2022-11-02T07:22:01;97628.81;;;12.96;71.11
75013;BME280;63567;49.956;20.130;2022-11-02T07:24:26;97631.03;;;12.92;71.37
75013;BME280;63567;49.956;20.130;2022-11-02T07:26:52;97630.88;;;13.01;70.97
75013;BME280;63567;49.956;20.130;2022-11-02T07:29:17;97634.78;;;13.05;71.25
75013;BME280;63567;49.956;20.130;2022-11-02T07:31:43;97633.25;;;13.10;71.29
75013;BME280;63567;49.956;20.130;2022-11-02T07:34:09;97631.41;;;13.11;71.22
75013;BME280;63567;49.956;20.130;2022-11-02T07:36:34;97625.94;;;12.91;71.73
75013;BME280;63567;49.956;20.130;2022-11-02T07:39:00;97621.69;;;12.97;71.75
75013;BME280;63567;49.956;20.130;2022-11-02T07:41:25;97622.53;;;12.97;71.74
75013;BME280;63567;49.956;20.130;2022-11-02T07:43:51;97629.50;;;13.05;71.84
75013;BME280;63567;49.956;20.130;2022-11-02T07:46:16;97621.44;;;13.13;71.54
75013;BME280;63567;49.956;20.130;2022-11-02T07:48:41;97620.44;;;13.14;71.65
75013;BME280;63567;49.956;20.130;2022-11-02T07:51:07;97621.28;;;13.14;71.44
75013;BME280;63567;49.956;20.130;2022-11-02T07:53:35;97616.22;;;13.20;71.53
75013;BME280;63567;49.956;20.130;2022-11-02T07:56:01;97617.22;;;13.40;71.27
75013;BME280;63567;49.956;20.130;2022-11-02T07:58:27;97614.50;;;13.55;70.51
75013;BME280;63567;49.956;20.130;2022-11-02T08:00:52;97616.09;;;13.77;69.89
75013;BME280;63567;49.956;20.130;2022-11-02T08:03:18;97613.00;;;13.74;69.32
75013;BME280;63567;49.956;20.130;2022-11-02T08:05:44;97615.69;;;13.81;69.45
75013;BME280;63567;49.956;20.130;2022-11-02T08:10:35;97616.22;;;15.07;66.50
75013;BME280;63567;49.956;20.130;2022-11-02T08:13:01;97610.84;;;15.94;62.49
75013;BME280;63567;49.956;20.130;2022-11-02T08:15:27;97612.94;;;15.52;63.61
75013;BME280;63567;49.956;20.130;2022-11-02T08:18:20;97607.81;;;15.50;64.12
75013;BME280;63567;49.956;20.130;2022-11-02T08:20:44;97611.50;;;15.69;62.59
75013;BME280;63567;49.956;20.130;2022-11-02T08:23:10;97609.25;;;15.93;62.77
75013;BME280;63567;49.956;20.130;2022-11-02T08:25:37;97609.16;;;16.19;60.93
75013;BME280;63567;49.956;20.130;2022-11-02T08:28:03;97612.59;;;16.33;60.37
75013;BME280;63567;49.956;20.130;2022-11-02T08:30:30;97610.72;;;17.17;59.38
75013;BME280;63567;49.956;20.130;2022-11-02T08:33:05;97616.34;;;18.40;55.28
75013;BME280;63567;49.956;20.130;2022-11-02T08:35:31;97609.63;;;19.28;52.86
75013;BME280;63567;49.956;20.130;2022-11-02T08:37:57;97615.59;;;20.01;49.60
75013;BME280;63567;49.956;20.130;2022-11-02T08:40:24;97613.19;;;20.51;47.28
75013;BME280;63567;49.956;20.130;2022-11-02T08:42:57;97608.94;;;20.96;46.26
75013;BME280;63567;49.956;20.130;2022-11-02T08:45:23;97613.50;;;21.41;44.35
75013;BME280;63567;49.956;20.130;2022-11-02T08:47:48;97607.44;;;22.68;43.90
75013;BME280;63567;49.956;20.130;2022-11-02T08:50:14;97608.59;;;22.99;40.96
75013;BME280;63567;49.956;20.130;2022-11-02T08:52:39;97610.06;;;21.80;42.72
75013;BME280;63567;49.956;20.130;2022-11-02T08:55:05;97605.19;;;21.60;44.41
75013;BME280;63567;49.956;20.130;2022-11-02T08:57:30;97611.44;;;23.14;41.50
75013;BME280;63567;49.956;20.130;2022-11-02T08:59:56;97610.88;;;23.12;39.65
75013;BME280;63567;49.956;20.130;2022-11-02T09:02:21;97604.81;;;23.97;39.48
75013;BME280;63567;49.956;20.130;2022-11-02T09:04:46;97603.09;;;25.12;38.07
75013;BME280;63567;49.956;20.130;2022-11-02T09:07:11;97605.50;;;25.13;35.97
75013;BME280;63567;49.956;20.130;2022-11-02T09:09:37;97609.31;;;25.43;35.30
75013;BME280;63567;49.956;20.130;2022-11-02T09:12:02;97608.44;;;25.07;36.62
75013;BME280;63567;49.956;20.130;2022-11-02T09:14:28;97613.16;;;26.53;34.07
75013;BME280;63567;49.956;20.130;2022-11-02T09:16:53;97613.06;;;27.18;32.65
75013;BME280;63567;49.956;20.130;2022-11-02T09:19:18;97606.25;;;28.19;31.36
75013;BME280;63567;49.956;20.130;2022-11-02T09:21:43;97603.97;;;28.93;29.24
75013;BME280;63567;49.956;20.130;2022-11-02T09:24:09;97601.84;;;29.28;29.46
75013;BME280;63567;49.956;20.130;2022-11-02T09:26:34;97602.13;;;28.88;28.92
75013;BME280;63567;49.956;20.130;2022-11-02T09:28:59;97605.53;;;28.32;28.83
75013;BME280;63567;49.956;20.130;2022-11-02T09:31:24;97599.31;;;28.32;29.49
75013;BME280;63567;49.956;20.130;2022-11-02T09:33:50;97603.59;;;27.55;30.70
75013;BME280;63567;49.956;20.130;2022-11-02T09:36:15;97596.97;;;27.72;30.79
75013;BME280;63567;49.956;20.130;2022-11-02T09:38:40;97597.66;;;29.17;28.99
75013;BME280;63567;49.956;20.130;2022-11-02T09:41:11;97598.03;;;28.91;28.69
75013;BME280;63567;49.956;20.130;2022-11-02T09:43:45;97596.31;;;28.57;28.20
75013;BME280;63567;49.956;20.130;2022-11-02T09:46:24;97597.56;;;29.41;28.03
75013;BME280;63567;49.956;20.130;2022-11-02T09:48:56;97598.75;;;28.35;29.09
75013;BME280;63567;49.956;20.130;2022-11-02T09:51:31;97603.69;;;28.03;30.11
75013;BME280;63567;49.956;20.130;2022-11-02T09:57:01;97602.78;;;27.20;29.99
75013;BME280;63567;49.956;20.130;2022-11-02T09:59:28;97601.69;;;28.38;29.19
75013;BME280;63567;49.956;20.130;2022-11-02T10:10:37;97596.31;;;29.66;26.16
75013;BME280;63567;49.956;20.130;2022-11-02T10:15:41;97598.53;;;31.25;24.26
75013;BME280;63567;49.956;20.130;2022-11-02T10:18:15;97597.75;;;31.69;24.03
75013;BME280;63567;49.956;20.130;2022-11-02T10:20:49;97598.31;;;32.20;23.91
75013;BME280;63567;49.956;20.130;2022-11-02T10:23:29;97585.66;;;31.62;24.30
75013;BME280;63567;49.956;20.130;2022-11-02T10:25:57;97581.78;;;32.91;22.05
75013;BME280;63567;49.956;20.130;2022-11-02T10:28:29;97577.72;;;33.59;20.50
75013;BME280;63567;49.956;20.130;2022-11-02T10:30:55;97573.22;;;34.19;20.97
75013;BME280;63567;49.956;20.130;2022-11-02T10:33:26;97582.91;;;34.07;20.30
75013;BME280;63567;49.956;20.130;2022-11-02T10:39:02;97585.13;;;33.58;20.34
75013;BME280;63567;49.956;20.130;2022-11-02T10:41:57;97584.56;;;33.91;19.77
75013;BME280;63567;49.956;20.130;2022-11-02T10:44:36;97584.31;;;32.53;21.56
75013;BME280;63567;49.956;20.130;2022-11-02T10:47:15;97570.69;;;33.40;20.98
75013;BME280;63567;49.956;20.130;2022-11-02T10:50:15;97580.88;;;33.87;19.86
75013;BME280;63567;49.956;20.130;2022-11-02T10:52:44;97581.16;;;32.77;19.81
75013;BME280;63567;49.956;20.130;2022-11-02T10:55:35;97573.13;;;33.97;20.07
75013;BME280;63567;49.956;20.130;2022-11-02T10:58:04;97575.53;;;33.99;19.58
75013;BME280;63567;49.956;20.130;2022-11-02T11:00:35;97575.72;;;33.21;19.51
75013;BME280;63567;49.956;20.130;2022-11-02T11:03:03;97572.22;;;32.37;20.52
75013;BME280;63567;49.956;20.130;2022-11-02T11:05:29;97579.81;;;31.46;20.98
75013;BME280;63567;49.956;20.130;2022-11-02T11:07:54;97581.25;;;31.43;21.89
75013;BME280;63567;49.956;20.130;2022-11-02T11:10:22;97564.38;;;30.46;22.81
75013;BME280;63567;49.956;20.130;2022-11-02T11:12:48;97574.72;;;30.58;23.24
75013;BME280;63567;49.956;20.130;2022-11-02T11:15:22;97571.56;;;30.92;23.14
75013;BME280;63567;49.956;20.130;2022-11-02T11:17:49;97571.44;;;30.33;24.12
75013;BME280;63567;49.956;20.130;2022-11-02T11:20:35;97570.63;;;29.91;23.67
75013;BME280;63567;49.956;20.130;2022-11-02T11:25:39;97557.84;;;28.93;25.23
75013;BME280;63567;49.956;20.130;2022-11-02T11:31:00;97557.59;;;27.55;28.60
75013;BME280;63567;49.956;20.130;2022-11-02T11:33:26;97557.53;;;30.07;24.18
75013;BME280;63567;49.956;20.130;2022-11-02T11:35:51;97557.84;;;31.42;22.13
75013;BME280;63567;49.956;20.130;2022-11-02T11:38:20;97556.25;;;32.87;21.35
75013;BME280;63567;49.956;20.130;2022-11-02T11:40:49;97554.47;;;31.99;22.22
75013;BME280;63567;49.956;20.130;2022-11-02T11:43:21;97554.41;;;32.48;20.69
75013;BME280;63567;49.956;20.130;2022-11-02T11:45:58;97550.41;;;33.50;20.06
75013;BME280;63567;49.956;20.130;2022-11-02T11:48:27;97542.03;;;32.24;19.73
75013;BME280;63567;49.956;20.130;2022-11-02T11:50:56;97559.88;;;31.59;20.99
75013;BME280;63567;49.956;20.130;2022-11-02T11:53:24;97558.69;;;30.70;21.47
75013;BME280;63567;49.956;20.130;2022-11-02T11:55:54;97555.84;;;31.11;21.73
75013;BME280;63567;49.956;20.130;2022-11-02T11:58:30;97556.16;;;32.35;20.32
75013;BME280;63567;49.956;20.130;2022-11-02T12:03:32;97553.78;;;31.93;21.13
75013;BME280;63567;49.956;20.130;2022-11-02T12:08:57;97544.03;;;32.76;18.65
75013;BME280;63567;49.956;20.130;2022-11-02T12:22:23;97539.13;;;29.90;23.25
75013;BME280;63567;49.956;20.130;2022-11-02T12:30:19;97538.63;;;25.61;29.50
75013;BME280;63567;49.956;20.130;2022-11-02T12:33:11;97547.00;;;26.90;27.55
75013;BME280;63567;49.956;20.130;2022-11-02T12:35:55;97539.69;;;26.96;27.41
75013;BME280;63567;49.956;20.130;2022-11-02T12:38:37;97534.16;;;27.70;25.69
75013;BME280;63567;49.956;20.130;2022-11-02T12:41:10;97535.13;;;28.51;23.72
75013;BME280;63567;49.956;20.130;2022-11-02T12:43:45;97548.66;;;29.08;23.08
75013;BME280;63567;49.956;20.130;2022-11-02T12:49:05;97531.59;;;30.15;21.56
75013;BME280;63567;49.956;20.130;2022-11-02T12:51:37;97531.94;;;29.01;23.55
75013;BME280;63567;49.956;20.130;2022-11-02T12:54:15;97535.09;;;28.08;24.13
75013;BME280;63567;49.956;20.130;2022-11-02T12:56:51;97536.88;;;27.70;25.09
75013;BME280;63567;49.956;20.130;2022-11-02T12:59:24;97518.22;;;27.92;25.24
75013;BME280;63567;49.956;20.130;2022-11-02T13:01:53;97529.97;;;28.50;23.89
75013;BME280;63567;49.956;20.130;2022-11-02T13:04:26;97530.03;;;26.79;25.89
75013;BME280;63567;49.956;20.130;2022-11-02T13:07:14;97531.53;;;25.96;26.97
75013;BME280;63567;49.956;20.130;2022-11-02T13:09:51;97524.84;;;25.68;27.96
75013;BME280;63567;49.956;20.130;2022-11-02T13:12:21;97525.44;;;25.14;28.59
75013;BME280;63567;49.956;20.130;2022-11-02T13:14:48;97531.91;;;25.28;28.83
75013;BME280;63567;49.956;20.130;2022-11-02T13:19:54;97534.25;;;26.51;25.98
75013;BME280;63567;49.956;20.130;2022-11-02T13:22:25;97530.91;;;26.20;27.29
75013;BME280;63567;49.956;20.130;2022-11-02T13:24:55;97534.09;;;26.27;26.16
75013;BME280;63567;49.956;20.130;2022-11-02T13:27:29;97536.22;;;26.35;26.25
75013;BME280;63567;49.956;20.130;2022-11-02T13:29:59;97535.88;;;26.47;26.10
75013;BME280;63567;49.956;20.130;2022-11-02T13:32:38;97531.63;;;27.54;25.30
75013;BME280;63567;49.956;20.130;2022-11-02T13:35:19;97534.91;;;28.04;23.98
75013;BME280;63567;49.956;20.130;2022-11-02T13:37:52;97534.44;;;27.68;25.63
75013;BME280;63567;49.956;20.130;2022-11-02T13:40:29;97536.94;;;28.13;25.06
75013;BME280;63567;49.956;20.130;2022-11-02T13:48:24;97535.16;;;27.79;24.34
75013;BME280;63567;49.956;20.130;2022-11-02T13:50:57;97540.78;;;27.29;25.07
75013;BME280;63567;49.956;20.130;2022-11-02T13:53:28;97537.16;;;26.70;25.16
75013;BME280;63567;49.956;20.130;2022-11-02T13:55:59;97535.28;;;26.66;25.41
75013;BME280;63567;49.956;20.130;2022-11-02T13:58:27;97539.75;;;26.36;25.90
75013;BME280;63567;49.956;20.130;2022-11-02T14:01:01;97533.22;;;26.37;26.04
75013;BME280;63567;49.956;20.130;2022-11-02T14:06:11;97537.03;;;26.86;25.36
75013;BME280;63567;49.956;20.130;2022-11-02T14:08:41;97540.69;;;26.60;26.11
75013;BME280;63567;49.956;20.130;2022-11-02T14:27:00;97547.75;;;21.39;36.11
75013;BME280;63567;49.956;20.130;2022-11-02T14:32:47;97536.59;;;20.50;38.47
75013;BME280;63567;49.956;20.130;2022-11-02T14:43:58;97534.88;;;18.56;44.37
75013;BME280;63567;49.956;20.130;2022-11-02T14:49:23;97546.91;;;17.98;46.57